sensor_id;sensor_type;location;lat;lon;timestamp;P1;durP1;ratioP1;P2;durP2;ratioP2
47912;SDS011;33676;51.006;17.180;2023-07-08T00:01:38;6.10;;;5.60;;
47912;SDS011;33676;51.006;17.180;2023-07-08T00:04:07;5.50;;;5.00;;
47912;SDS011;33676;51.006;17.180;2023-07-08T00:06:35;7.40;;;5.50;;
47912;SDS011;33676;51.006;17.180;2023-07-08T00:09:09;9.00;;;7.50;;
47912;SDS011;33676;51.006;17.180;2023-07-08T00:11:39;14.30;;;8.00;;
47912;SDS011;33676;51.006;17.180;2023-07-08T00:14:08;9.10;;;7.60;;
47912;SDS011;33676;51.006;17.180;2023-07-08T00:16:37;8.10;;;7.40;;
47912;SDS011;33676;51.006;17.180;2023-07-08T00:19:09;7.50;;;6.80;;
47912;SDS011;33676;51.006;17.180;2023-07-08T00:21:39;7.50;;;6.80;;
47912;SDS011;33676;51.006;17.180;2023-07-08T00:24:07;6.80;;;6.20;;
47912;SDS011;33676;51.006;17.180;2023-07-08T00:26:36;8.00;;;6.10;;
47912;SDS011;33676;51.006;17.180;2023-07-08T00:29:08;8.90;;;7.80;;
47912;SDS011;33676;51.006;17.180;2023-07-08T00:31:38;7.30;;;6.70;;
47912;SDS011;33676;51.006;17.180;2023-07-08T00:34:06;7.40;;;6.80;;
47912;SDS011;33676;51.006;17.180;2023-07-08T00:36:35;8.40;;;6.90;;
47912;SDS011;33676;51.006;17.180;2023-07-08T00:39:08;6.50;;;5.90;;
47912;SDS011;33676;51.006;17.180;2023-07-08T00:41:41;7.70;;;6.90;;
47912;SDS011;33676;51.006;17.180;2023-07-08T00:44:11;9.10;;;6.70;;
47912;SDS011;33676;51.006;17.180;2023-07-08T00:46:50;6.20;;;5.60;;
47912;SDS011;33676;51.006;17.180;2023-07-08T00:49:47;8.60;;;6.30;;
47912;SDS011;33676;51.006;17.180;2023-07-08T00:54:56;6.70;;;5.70;;
47912;SDS011;33676;51.006;17.180;2023-07-08T00:57:30;10.80;;;7.40;;
47912;SDS011;33676;51.006;17.180;2023-07-08T01:00:07;7.80;;;7.10;;
47912;SDS011;33676;51.006;17.180;2023-07-08T01:02:42;10.70;;;6.90;;
47912;SDS011;33676;51.006;17.180;2023-07-08T01:05:21;7.70;;;6.20;;
47912;SDS011;33676;51.006;17.180;2023-07-08T01:07:55;9.10;;;6.90;;
47912;SDS011;33676;51.006;17.180;2023-07-08T01:10:37;8.20;;;7.40;;
47912;SDS011;33676;51.006;17.180;2023-07-08T01:13:11;9.60;;;7.60;;
47912;SDS011;33676;51.006;17.180;2023-07-08T01:15:43;8.20;;;6.60;;
47912;SDS011;33676;51.006;17.180;2023-07-08T01:18:15;7.00;;;6.30;;
47912;SDS011;33676;51.006;17.180;2023-07-08T01:20:49;7.90;;;6.80;;
47912;SDS011;33676;51.006;17.180;2023-07-08T01:23:17;7.50;;;6.70;;
47912;SDS011;33676;51.006;17.180;2023-07-08T01:25:46;6.90;;;6.10;;
47912;SDS011;33676;51.006;17.180;2023-07-08T01:28:16;7.00;;;6.30;;
47912;SDS011;33676;51.006;17.180;2023-07-08T01:30:45;6.30;;;5.70;;
47912;SDS011;33676;51.006;17.180;2023-07-08T01:33:18;6.30;;;5.80;;
47912;SDS011;33676;51.006;17.180;2023-07-08T01:35:50;9.00;;;6.80;;
47912;SDS011;33676;51.006;17.180;2023-07-08T01:38:25;7.70;;;7.00;;
47912;SDS011;33676;51.006;17.180;2023-07-08T01:40:57;11.10;;;7.40;;
47912;SDS011;33676;51.006;17.180;2023-07-08T01:43:26;7.40;;;6.80;;
47912;SDS011;33676;51.006;17.180;2023-07-08T01:45:55;8.90;;;7.40;;
47912;SDS011;33676;51.006;17.180;2023-07-08T01:48:26;7.50;;;6.90;;
47912;SDS011;33676;51.006;17.180;2023-07-08T01:51:07;8.40;;;7.70;;
47912;SDS011;33676;51.006;17.180;2023-07-08T01:53:38;6.80;;;5.80;;
47912;SDS011;33676;51.006;17.180;2023-07-08T01:58:41;6.80;;;6.20;;
47912;SDS011;33676;51.006;17.180;2023-07-08T02:01:10;10.40;;;7.50;;
47912;SDS011;33676;51.006;17.180;2023-07-08T02:03:39;8.30;;;7.20;;
47912;SDS011;33676;51.006;17.180;2023-07-08T02:06:11;7.00;;;6.30;;
47912;SDS011;33676;51.006;17.180;2023-07-08T02:08:39;6.90;;;6.20;;
47912;SDS011;33676;51.006;17.180;2023-07-08T02:11:07;7.80;;;6.40;;
47912;SDS011;33676;51.006;17.180;2023-07-08T02:13:36;11.90;;;7.30;;
47912;SDS011;33676;51.006;17.180;2023-07-08T02:16:06;10.30;;;6.10;;
47912;SDS011;33676;51.006;17.180;2023-07-08T02:18:35;8.60;;;6.80;;
47912;SDS011;33676;51.006;17.180;2023-07-08T02:21:04;8.00;;;7.20;;
47912;SDS011;33676;51.006;17.180;2023-07-08T02:23:32;7.90;;;7.10;;
47912;SDS011;33676;51.006;17.180;2023-07-08T02:26:00;7.20;;;6.60;;
47912;SDS011;33676;51.006;17.180;2023-07-08T02:28:29;15.40;;;6.70;;
47912;SDS011;33676;51.006;17.180;2023-07-08T02:31:01;10.80;;;7.40;;
47912;SDS011;33676;51.006;17.180;2023-07-08T02:33:31;13.90;;;8.30;;
47912;SDS011;33676;51.006;17.180;2023-07-08T02:36:01;7.90;;;7.20;;
47912;SDS011;33676;51.006;17.180;2023-07-08T02:38:30;8.80;;;8.00;;
47912;SDS011;33676;51.006;17.180;2023-07-08T02:40:59;7.50;;;6.80;;
47912;SDS011;33676;51.006;17.180;2023-07-08T02:43:28;7.70;;;7.00;;
47912;SDS011;33676;51.006;17.180;2023-07-08T02:45:56;7.60;;;6.80;;
47912;SDS011;33676;51.006;17.180;2023-07-08T02:48:25;7.80;;;7.00;;
47912;SDS011;33676;51.006;17.180;2023-07-08T02:50:58;8.40;;;7.70;;
47912;SDS011;33676;51.006;17.180;2023-07-08T02:53:29;7.60;;;6.40;;
47912;SDS011;33676;51.006;17.180;2023-07-08T02:55:57;8.20;;;7.30;;
47912;SDS011;33676;51.006;17.180;2023-07-08T02:58:26;8.50;;;6.80;;
47912;SDS011;33676;51.006;17.180;2023-07-08T03:00:55;8.30;;;7.50;;
47912;SDS011;33676;51.006;17.180;2023-07-08T03:03:28;6.90;;;6.30;;
47912;SDS011;33676;51.006;17.180;2023-07-08T03:06:02;7.60;;;6.00;;
47912;SDS011;33676;51.006;17.180;2023-07-08T03:08:33;6.80;;;6.00;;
47912;SDS011;33676;51.006;17.180;2023-07-08T03:11:04;7.00;;;6.40;;
47912;SDS011;33676;51.006;17.180;2023-07-08T03:13:34;11.70;;;7.20;;
47912;SDS011;33676;51.006;17.180;2023-07-08T03:16:03;7.10;;;6.50;;
47912;SDS011;33676;51.006;17.180;2023-07-08T03:18:40;7.10;;;6.40;;
47912;SDS011;33676;51.006;17.180;2023-07-08T03:21:18;6.40;;;5.80;;
47912;SDS011;33676;51.006;17.180;2023-07-08T03:23:47;8.40;;;6.70;;
47912;SDS011;33676;51.006;17.180;2023-07-08T03:26:24;8.70;;;7.40;;
47912;SDS011;33676;51.006;17.180;2023-07-08T03:28:57;8.10;;;7.40;;
47912;SDS011;33676;51.006;17.180;2023-07-08T03:31:25;8.10;;;7.40;;
47912;SDS011;33676;51.006;17.180;2023-07-08T03:33:54;10.50;;;9.30;;
47912;SDS011;33676;51.006;17.180;2023-07-08T03:36:22;8.50;;;7.80;;
47912;SDS011;33676;51.006;17.180;2023-07-08T03:38:55;9.40;;;8.60;;
47912;SDS011;33676;51.006;17.180;2023-07-08T03:41:25;9.00;;;7.80;;
47912;SDS011;33676;51.006;17.180;2023-07-08T03:43:53;9.00;;;8.10;;
47912;SDS011;33676;51.006;17.180;2023-07-08T03:46:22;15.40;;;8.80;;
47912;SDS011;33676;51.006;17.180;2023-07-08T03:48:53;8.20;;;7.40;;
47912;SDS011;33676;51.006;17.180;2023-07-08T03:51:30;8.30;;;7.50;;
47912;SDS011;33676;51.006;17.180;2023-07-08T03:54:02;9.10;;;8.20;;
47912;SDS011;33676;51.006;17.180;2023-07-08T03:56:32;9.10;;;8.40;;
47912;SDS011;33676;51.006;17.180;2023-07-08T03:59:00;9.70;;;8.80;;
47912;SDS011;33676;51.006;17.180;2023-07-08T04:01:29;10.00;;;9.10;;
47912;SDS011;33676;51.006;17.180;2023-07-08T04:03:58;9.60;;;8.80;;
47912;SDS011;33676;51.006;17.180;2023-07-08T04:06:27;10.80;;;9.00;;
47912;SDS011;33676;51.006;17.180;2023-07-08T04:08:58;8.50;;;7.80;;
47912;SDS011;33676;51.006;17.180;2023-07-08T04:11:27;9.20;;;8.40;;
47912;SDS011;33676;51.006;17.180;2023-07-08T04:13:55;10.40;;;9.40;;
47912;SDS011;33676;51.006;17.180;2023-07-08T04:16:28;10.70;;;9.70;;
47912;SDS011;33676;51.006;17.180;2023-07-08T04:19:00;10.80;;;9.90;;
47912;SDS011;33676;51.006;17.180;2023-07-08T04:21:29;10.10;;;9.00;;
47912;SDS011;33676;51.006;17.180;2023-07-08T04:23:58;11.20;;;9.20;;
47912;SDS011;33676;51.006;17.180;2023-07-08T04:26:26;9.70;;;8.90;;
47912;SDS011;33676;51.006;17.180;2023-07-08T04:28:55;9.60;;;8.70;;
47912;SDS011;33676;51.006;17.180;2023-07-08T04:31:23;11.20;;;10.20;;
47912;SDS011;33676;51.006;17.180;2023-07-08T04:33:52;10.70;;;8.80;;
47912;SDS011;33676;51.006;17.180;2023-07-08T04:36:20;9.50;;;8.40;;
47912;SDS011;33676;51.006;17.180;2023-07-08T04:38:49;10.80;;;9.80;;
47912;SDS011;33676;51.006;17.180;2023-07-08T04:41:18;12.60;;;9.00;;
47912;SDS011;33676;51.006;17.180;2023-07-08T04:43:46;8.70;;;7.90;;
47912;SDS011;33676;51.006;17.180;2023-07-08T04:46:27;11.40;;;10.00;;
47912;SDS011;33676;51.006;17.180;2023-07-08T04:49:04;14.10;;;9.10;;
47912;SDS011;33676;51.006;17.180;2023-07-08T04:51:33;10.00;;;9.20;;
47912;SDS011;33676;51.006;17.180;2023-07-08T04:54:02;10.50;;;9.40;;
47912;SDS011;33676;51.006;17.180;2023-07-08T04:56:39;9.70;;;8.70;;
47912;SDS011;33676;51.006;17.180;2023-07-08T04:59:12;10.60;;;9.60;;
47912;SDS011;33676;51.006;17.180;2023-07-08T05:01:43;10.40;;;8.80;;
47912;SDS011;33676;51.006;17.180;2023-07-08T05:04:17;10.10;;;9.20;;
47912;SDS011;33676;51.006;17.180;2023-07-08T05:06:47;12.20;;;10.20;;
47912;SDS011;33676;51.006;17.180;2023-07-08T05:09:16;10.30;;;9.40;;
47912;SDS011;33676;51.006;17.180;2023-07-08T05:11:45;10.50;;;9.70;;
47912;SDS011;33676;51.006;17.180;2023-07-08T05:14:14;10.30;;;9.20;;
47912;SDS011;33676;51.006;17.180;2023-07-08T05:16:42;11.50;;;10.10;;
47912;SDS011;33676;51.006;17.180;2023-07-08T05:19:11;9.60;;;8.80;;
47912;SDS011;33676;51.006;17.180;2023-07-08T05:21:39;8.30;;;7.40;;
47912;SDS011;33676;51.006;17.180;2023-07-08T05:24:07;9.00;;;8.20;;
47912;SDS011;33676;51.006;17.180;2023-07-08T05:26:36;9.50;;;8.50;;
47912;SDS011;33676;51.006;17.180;2023-07-08T05:29:05;8.90;;;8.10;;
47912;SDS011;33676;51.006;17.180;2023-07-08T05:31:33;9.60;;;8.70;;
47912;SDS011;33676;51.006;17.180;2023-07-08T05:34:05;8.40;;;7.70;;
47912;SDS011;33676;51.006;17.180;2023-07-08T05:36:33;9.90;;;9.00;;
47912;SDS011;33676;51.006;17.180;2023-07-08T05:39:02;9.50;;;8.60;;
47912;SDS011;33676;51.006;17.180;2023-07-08T05:41:30;8.80;;;7.90;;
47912;SDS011;33676;51.006;17.180;2023-07-08T05:43:59;8.90;;;8.10;;
47912;SDS011;33676;51.006;17.180;2023-07-08T05:46:27;9.10;;;8.30;;
47912;SDS011;33676;51.006;17.180;2023-07-08T05:48:56;9.40;;;8.50;;
47912;SDS011;33676;51.006;17.180;2023-07-08T05:51:28;8.00;;;7.40;;
47912;SDS011;33676;51.006;17.180;2023-07-08T05:53:57;8.80;;;8.10;;
47912;SDS011;33676;51.006;17.180;2023-07-08T05:56:25;8.80;;;7.80;;
47912;SDS011;33676;51.006;17.180;2023-07-08T05:58:53;9.10;;;8.30;;
47912;SDS011;33676;51.006;17.180;2023-07-08T06:01:22;8.20;;;7.50;;
47912;SDS011;33676;51.006;17.180;2023-07-08T06:03:50;9.00;;;8.20;;
47912;SDS011;33676;51.006;17.180;2023-07-08T06:06:19;7.50;;;6.70;;
47912;SDS011;33676;51.006;17.180;2023-07-08T06:08:47;7.20;;;6.70;;
47912;SDS011;33676;51.006;17.180;2023-07-08T06:11:16;7.00;;;6.50;;
47912;SDS011;33676;51.006;17.180;2023-07-08T06:13:45;5.80;;;5.40;;
47912;SDS011;33676;51.006;17.180;2023-07-08T06:16:14;6.20;;;5.60;;
47912;SDS011;33676;51.006;17.180;2023-07-08T06:18:56;6.00;;;5.30;;
47912;SDS011;33676;51.006;17.180;2023-07-08T06:21:25;6.30;;;5.80;;
47912;SDS011;33676;51.006;17.180;2023-07-08T06:23:53;5.70;;;5.00;;
47912;SDS011;33676;51.006;17.180;2023-07-08T06:26:22;5.50;;;5.10;;
47912;SDS011;33676;51.006;17.180;2023-07-08T06:28:51;5.60;;;5.20;;
47912;SDS011;33676;51.006;17.180;2023-07-08T06:31:20;6.10;;;4.90;;
47912;SDS011;33676;51.006;17.180;2023-07-08T06:33:49;5.90;;;5.20;;
47912;SDS011;33676;51.006;17.180;2023-07-08T06:36:17;6.20;;;5.60;;
47912;SDS011;33676;51.006;17.180;2023-07-08T06:38:46;6.50;;;5.90;;
47912;SDS011;33676;51.006;17.180;2023-07-08T06:41:14;5.20;;;4.60;;
47912;SDS011;33676;51.006;17.180;2023-07-08T06:43:43;4.70;;;4.40;;
47912;SDS011;33676;51.006;17.180;2023-07-08T06:46:11;5.40;;;4.80;;
47912;SDS011;33676;51.006;17.180;2023-07-08T06:48:40;4.20;;;3.80;;
47912;SDS011;33676;51.006;17.180;2023-07-08T06:51:08;4.50;;;4.10;;
47912;SDS011;33676;51.006;17.180;2023-07-08T06:53:36;4.20;;;3.90;;
47912;SDS011;33676;51.006;17.180;2023-07-08T06:56:05;4.50;;;4.10;;
47912;SDS011;33676;51.006;17.180;2023-07-08T06:58:33;4.50;;;4.10;;
47912;SDS011;33676;51.006;17.180;2023-07-08T07:01:02;4.20;;;3.60;;
47912;SDS011;33676;51.006;17.180;2023-07-08T07:03:31;4.30;;;3.90;;
47912;SDS011;33676;51.006;17.180;2023-07-08T07:06:00;5.60;;;4.00;;
47912;SDS011;33676;51.006;17.180;2023-07-08T07:08:28;6.60;;;3.70;;
47912;SDS011;33676;51.006;17.180;2023-07-08T07:10:57;3.70;;;3.40;;
47912;SDS011;33676;51.006;17.180;2023-07-08T07:13:26;3.50;;;3.30;;
47912;SDS011;33676;51.006;17.180;2023-07-08T07:15:54;3.80;;;3.50;;
47912;SDS011;33676;51.006;17.180;2023-07-08T07:18:23;4.10;;;3.10;;
47912;SDS011;33676;51.006;17.180;2023-07-08T07:20:54;3.40;;;3.20;;
47912;SDS011;33676;51.006;17.180;2023-07-08T07:23:22;3.80;;;3.20;;
47912;SDS011;33676;51.006;17.180;2023-07-08T07:25:51;2.80;;;2.60;;
47912;SDS011;33676;51.006;17.180;2023-07-08T07:28:19;3.40;;;3.10;;
47912;SDS011;33676;51.006;17.180;2023-07-08T07:30:55;3.10;;;2.90;;
47912;SDS011;33676;51.006;17.180;2023-07-08T07:33:26;7.30;;;2.80;;
47912;SDS011;33676;51.006;17.180;2023-07-08T07:35:54;2.90;;;2.70;;
47912;SDS011;33676;51.006;17.180;2023-07-08T07:38:23;2.90;;;2.70;;
47912;SDS011;33676;51.006;17.180;2023-07-08T07:40:56;4.30;;;2.30;;
47912;SDS011;33676;51.006;17.180;2023-07-08T07:43:28;2.50;;;2.40;;
47912;SDS011;33676;51.006;17.180;2023-07-08T07:45:56;2.90;;;2.60;;
47912;SDS011;33676;51.006;17.180;2023-07-08T07:48:25;3.10;;;2.60;;
47912;SDS011;33676;51.006;17.180;2023-07-08T07:50:58;2.90;;;2.30;;
47912;SDS011;33676;51.006;17.180;2023-07-08T07:53:27;2.80;;;2.60;;
47912;SDS011;33676;51.006;17.180;2023-07-08T07:56:00;2.70;;;2.50;;
47912;SDS011;33676;51.006;17.180;2023-07-08T07:58:31;2.60;;;2.30;;
47912;SDS011;33676;51.006;17.180;2023-07-08T08:01:00;2.40;;;2.30;;
47912;SDS011;33676;51.006;17.180;2023-07-08T08:03:29;5.50;;;2.90;;
47912;SDS011;33676;51.006;17.180;2023-07-08T08:05:58;3.20;;;3.00;;
47912;SDS011;33676;51.006;17.180;2023-07-08T08:08:27;2.10;;;1.80;;
47912;SDS011;33676;51.006;17.180;2023-07-08T08:10:55;2.50;;;2.30;;
47912;SDS011;33676;51.006;17.180;2023-07-08T08:13:24;2.90;;;2.70;;
47912;SDS011;33676;51.006;17.180;2023-07-08T08:15:56;2.70;;;2.60;;
47912;SDS011;33676;51.006;17.180;2023-07-08T08:20:55;6.50;;;3.80;;
47912;SDS011;33676;51.006;17.180;2023-07-08T08:23:24;3.00;;;2.70;;
47912;SDS011;33676;51.006;17.180;2023-07-08T08:25:52;2.90;;;2.70;;
47912;SDS011;33676;51.006;17.180;2023-07-08T08:28:21;2.40;;;2.20;;
47912;SDS011;33676;51.006;17.180;2023-07-08T08:30:50;1.80;;;1.70;;
47912;SDS011;33676;51.006;17.180;2023-07-08T08:33:19;3.10;;;2.50;;
47912;SDS011;33676;51.006;17.180;2023-07-08T08:35:48;3.20;;;2.50;;
47912;SDS011;33676;51.006;17.180;2023-07-08T08:38:16;2.90;;;2.60;;
47912;SDS011;33676;51.006;17.180;2023-07-08T08:40:45;2.30;;;2.20;;
47912;SDS011;33676;51.006;17.180;2023-07-08T08:43:18;2.20;;;2.10;;
47912;SDS011;33676;51.006;17.180;2023-07-08T08:51:54;2.80;;;2.60;;
47912;SDS011;33676;51.006;17.180;2023-07-08T08:54:25;2.40;;;2.20;;
47912;SDS011;33676;51.006;17.180;2023-07-08T08:57:00;2.30;;;2.20;;
47912;SDS011;33676;51.006;17.180;2023-07-08T08:59:48;3.50;;;2.60;;
47912;SDS011;33676;51.006;17.180;2023-07-08T09:02:27;2.60;;;2.40;;
47912;SDS011;33676;51.006;17.180;2023-07-08T09:05:08;3.20;;;2.70;;
47912;SDS011;33676;51.006;17.180;2023-07-08T09:13:38;2.10;;;2.00;;
47912;SDS011;33676;51.006;17.180;2023-07-08T09:19:03;2.50;;;2.30;;
47912;SDS011;33676;51.006;17.180;2023-07-08T09:22:00;3.00;;;2.20;;
47912;SDS011;33676;51.006;17.180;2023-07-08T09:24:39;2.40;;;2.30;;
47912;SDS011;33676;51.006;17.180;2023-07-08T09:27:09;5.70;;;2.70;;
47912;SDS011;33676;51.006;17.180;2023-07-08T09:29:37;2.30;;;2.20;;
47912;SDS011;33676;51.006;17.180;2023-07-08T09:32:27;3.40;;;2.30;;
47912;SDS011;33676;51.006;17.180;2023-07-08T09:35:04;3.20;;;3.00;;
47912;SDS011;33676;51.006;17.180;2023-07-08T09:37:36;3.80;;;2.40;;
47912;SDS011;33676;51.006;17.180;2023-07-08T09:40:30;2.80;;;2.50;;
47912;SDS011;33676;51.006;17.180;2023-07-08T09:43:20;2.20;;;2.10;;
47912;SDS011;33676;51.006;17.180;2023-07-08T09:45:57;2.00;;;1.90;;
47912;SDS011;33676;51.006;17.180;2023-07-08T09:48:29;2.60;;;2.30;;
47912;SDS011;33676;51.006;17.180;2023-07-08T09:51:04;2.30;;;2.20;;
47912;SDS011;33676;51.006;17.180;2023-07-08T09:53:33;2.50;;;2.30;;
47912;SDS011;33676;51.006;17.180;2023-07-08T09:56:03;2.20;;;2.00;;
47912;SDS011;33676;51.006;17.180;2023-07-08T09:58:37;2.30;;;2.20;;
47912;SDS011;33676;51.006;17.180;2023-07-08T10:01:20;2.50;;;2.30;;
47912;SDS011;33676;51.006;17.180;2023-07-08T10:03:51;2.60;;;2.40;;
47912;SDS011;33676;51.006;17.180;2023-07-08T10:06:27;2.60;;;2.40;;
47912;SDS011;33676;51.006;17.180;2023-07-08T10:09:11;2.60;;;2.40;;
47912;SDS011;33676;51.006;17.180;2023-07-08T10:11:51;2.90;;;2.70;;
47912;SDS011;33676;51.006;17.180;2023-07-08T10:14:37;2.20;;;2.00;;
47912;SDS011;33676;51.006;17.180;2023-07-08T10:17:15;2.70;;;2.60;;
47912;SDS011;33676;51.006;17.180;2023-07-08T10:19:47;2.70;;;2.60;;
47912;SDS011;33676;51.006;17.180;2023-07-08T10:22:38;2.50;;;2.30;;
47912;SDS011;33676;51.006;17.180;2023-07-08T10:25:34;2.50;;;2.40;;
47912;SDS011;33676;51.006;17.180;2023-07-08T10:28:32;2.30;;;2.20;;
47912;SDS011;33676;51.006;17.180;2023-07-08T10:31:27;2.80;;;2.60;;
47912;SDS011;33676;51.006;17.180;2023-07-08T10:34:24;3.20;;;3.00;;
47912;SDS011;33676;51.006;17.180;2023-07-08T10:37:16;3.70;;;2.10;;
47912;SDS011;33676;51.006;17.180;2023-07-08T10:40:54;2.60;;;2.20;;
47912;SDS011;33676;51.006;17.180;2023-07-08T10:43:55;2.10;;;2.00;;
47912;SDS011;33676;51.006;17.180;2023-07-08T10:47:00;2.90;;;2.10;;
47912;SDS011;33676;51.006;17.180;2023-07-08T10:56:18;3.00;;;1.80;;
47912;SDS011;33676;51.006;17.180;2023-07-08T11:07:42;2.80;;;2.70;;
47912;SDS011;33676;51.006;17.180;2023-07-08T11:10:32;1.80;;;1.80;;
47912;SDS011;33676;51.006;17.180;2023-07-08T11:13:10;2.40;;;2.10;;
47912;SDS011;33676;51.006;17.180;2023-07-08T11:15:46;2.30;;;2.10;;
47912;SDS011;33676;51.006;17.180;2023-07-08T11:21:51;3.50;;;3.10;;
47912;SDS011;33676;51.006;17.180;2023-07-08T11:24:53;2.40;;;2.30;;
47912;SDS011;33676;51.006;17.180;2023-07-08T11:27:49;2.40;;;2.30;;
47912;SDS011;33676;51.006;17.180;2023-07-08T11:30:23;2.30;;;2.20;;
47912;SDS011;33676;51.006;17.180;2023-07-08T11:33:04;2.40;;;2.20;;
47912;SDS011;33676;51.006;17.180;2023-07-08T11:35:46;2.50;;;2.30;;
47912;SDS011;33676;51.006;17.180;2023-07-08T11:38:20;1.90;;;1.80;;
47912;SDS011;33676;51.006;17.180;2023-07-08T11:41:11;2.30;;;2.20;;
47912;SDS011;33676;51.006;17.180;2023-07-08T11:43:50;3.00;;;2.50;;
47912;SDS011;33676;51.006;17.180;2023-07-08T11:46:24;2.30;;;2.10;;
47912;SDS011;33676;51.006;17.180;2023-07-08T11:49:01;2.00;;;1.80;;
47912;SDS011;33676;51.006;17.180;2023-07-08T11:51:34;2.30;;;2.20;;
47912;SDS011;33676;51.006;17.180;2023-07-08T11:54:29;2.90;;;2.60;;
47912;SDS011;33676;51.006;17.180;2023-07-08T11:57:03;2.20;;;2.00;;
47912;SDS011;33676;51.006;17.180;2023-07-08T11:59:37;3.60;;;1.90;;
47912;SDS011;33676;51.006;17.180;2023-07-08T12:02:13;2.20;;;2.00;;
47912;SDS011;33676;51.006;17.180;2023-07-08T12:05:57;2.90;;;2.70;;
47912;SDS011;33676;51.006;17.180;2023-07-08T12:08:12;2.20;;;2.00;;
47912;SDS011;33676;51.006;17.180;2023-07-08T12:10:50;5.10;;;1.90;;
47912;SDS011;33676;51.006;17.180;2023-07-08T12:13:23;2.60;;;2.10;;
47912;SDS011;33676;51.006;17.180;2023-07-08T12:15:54;2.40;;;2.20;;
47912;SDS011;33676;51.006;17.180;2023-07-08T12:18:25;1.90;;;1.80;;
47912;SDS011;33676;51.006;17.180;2023-07-08T12:21:00;2.40;;;2.20;;
47912;SDS011;33676;51.006;17.180;2023-07-08T12:23:30;3.10;;;2.10;;
47912;SDS011;33676;51.006;17.180;2023-07-08T12:25:58;2.10;;;1.90;;
47912;SDS011;33676;51.006;17.180;2023-07-08T12:28:27;3.40;;;2.10;;
47912;SDS011;33676;51.006;17.180;2023-07-08T12:30:56;2.10;;;2.00;;
47912;SDS011;33676;51.006;17.180;2023-07-08T12:33:30;2.40;;;2.20;;
47912;SDS011;33676;51.006;17.180;2023-07-08T12:36:02;2.20;;;2.10;;
47912;SDS011;33676;51.006;17.180;2023-07-08T12:38:40;2.50;;;2.40;;
47912;SDS011;33676;51.006;17.180;2023-07-08T12:43:42;2.50;;;2.20;;
47912;SDS011;33676;51.006;17.180;2023-07-08T12:46:18;2.20;;;1.80;;
47912;SDS011;33676;51.006;17.180;2023-07-08T12:48:49;2.20;;;2.10;;
47912;SDS011;33676;51.006;17.180;2023-07-08T12:51:21;2.20;;;2.10;;
47912;SDS011;33676;51.006;17.180;2023-07-08T12:53:52;2.70;;;2.50;;
47912;SDS011;33676;51.006;17.180;2023-07-08T12:56:22;2.30;;;2.20;;
47912;SDS011;33676;51.006;17.180;2023-07-08T12:58:58;1.70;;;1.70;;
47912;SDS011;33676;51.006;17.180;2023-07-08T13:01:29;1.90;;;1.90;;
47912;SDS011;33676;51.006;17.180;2023-07-08T13:04:07;2.50;;;2.10;;
47912;SDS011;33676;51.006;17.180;2023-07-08T13:06:39;2.40;;;2.30;;
47912;SDS011;33676;51.006;17.180;2023-07-08T13:12:26;1.70;;;1.70;;
47912;SDS011;33676;51.006;17.180;2023-07-08T13:14:55;2.20;;;2.20;;
47912;SDS011;33676;51.006;17.180;2023-07-08T13:17:27;2.20;;;2.10;;
47912;SDS011;33676;51.006;17.180;2023-07-08T13:19:56;2.30;;;2.20;;
47912;SDS011;33676;51.006;17.180;2023-07-08T13:22:25;2.70;;;2.60;;
47912;SDS011;33676;51.006;17.180;2023-07-08T13:25:02;4.70;;;2.30;;
47912;SDS011;33676;51.006;17.180;2023-07-08T13:27:30;2.30;;;2.10;;
47912;SDS011;33676;51.006;17.180;2023-07-08T13:30:15;2.20;;;2.10;;
47912;SDS011;33676;51.006;17.180;2023-07-08T13:32:57;2.30;;;2.20;;
47912;SDS011;33676;51.006;17.180;2023-07-08T13:38:01;2.00;;;1.90;;
47912;SDS011;33676;51.006;17.180;2023-07-08T13:40:30;2.10;;;2.00;;
47912;SDS011;33676;51.006;17.180;2023-07-08T13:43:00;3.30;;;3.10;;
47912;SDS011;33676;51.006;17.180;2023-07-08T13:45:31;2.60;;;2.50;;
47912;SDS011;33676;51.006;17.180;2023-07-08T13:50:46;1.80;;;1.80;;
47912;SDS011;33676;51.006;17.180;2023-07-08T13:53:26;2.20;;;2.10;;
47912;SDS011;33676;51.006;17.180;2023-07-08T13:56:19;1.70;;;1.70;;
47912;SDS011;33676;51.006;17.180;2023-07-08T13:58:54;2.50;;;2.40;;
47912;SDS011;33676;51.006;17.180;2023-07-08T14:01:31;2.90;;;2.80;;
47912;SDS011;33676;51.006;17.180;2023-07-08T14:04:03;3.60;;;3.40;;
47912;SDS011;33676;51.006;17.180;2023-07-08T14:06:35;2.60;;;2.50;;
47912;SDS011;33676;51.006;17.180;2023-07-08T14:11:41;2.40;;;2.30;;
47912;SDS011;33676;51.006;17.180;2023-07-08T14:14:13;2.70;;;2.60;;
47912;SDS011;33676;51.006;17.180;2023-07-08T14:16:50;2.50;;;2.40;;
47912;SDS011;33676;51.006;17.180;2023-07-08T14:19:25;2.60;;;2.50;;
47912;SDS011;33676;51.006;17.180;2023-07-08T14:21:59;2.70;;;2.60;;
47912;SDS011;33676;51.006;17.180;2023-07-08T14:24:30;2.70;;;2.60;;
47912;SDS011;33676;51.006;17.180;2023-07-08T14:26:58;2.30;;;2.20;;
47912;SDS011;33676;51.006;17.180;2023-07-08T14:33:29;2.40;;;2.30;;
47912;SDS011;33676;51.006;17.180;2023-07-08T14:35:59;2.60;;;2.50;;
47912;SDS011;33676;51.006;17.180;2023-07-08T14:38:28;2.80;;;2.70;;
47912;SDS011;33676;51.006;17.180;2023-07-08T14:41:00;2.30;;;2.20;;
47912;SDS011;33676;51.006;17.180;2023-07-08T14:43:31;2.50;;;2.40;;
47912;SDS011;33676;51.006;17.180;2023-07-08T14:46:02;3.00;;;2.90;;
47912;SDS011;33676;51.006;17.180;2023-07-08T14:48:32;2.50;;;2.40;;
47912;SDS011;33676;51.006;17.180;2023-07-08T14:51:01;2.50;;;2.30;;
47912;SDS011;33676;51.006;17.180;2023-07-08T14:53:32;2.70;;;2.60;;
47912;SDS011;33676;51.006;17.180;2023-07-08T14:56:06;2.50;;;2.40;;
47912;SDS011;33676;51.006;17.180;2023-07-08T14:58:44;3.00;;;2.90;;
47912;SDS011;33676;51.006;17.180;2023-07-08T15:01:20;3.00;;;2.90;;
47912;SDS011;33676;51.006;17.180;2023-07-08T15:03:49;3.70;;;3.40;;
47912;SDS011;33676;51.006;17.180;2023-07-08T15:06:19;3.70;;;3.50;;
47912;SDS011;33676;51.006;17.180;2023-07-08T15:08:48;4.10;;;4.00;;
47912;SDS011;33676;51.006;17.180;2023-07-08T15:11:17;3.80;;;3.70;;
47912;SDS011;33676;51.006;17.180;2023-07-08T15:13:54;3.70;;;3.60;;
47912;SDS011;33676;51.006;17.180;2023-07-08T15:16:23;3.90;;;3.70;;
47912;SDS011;33676;51.006;17.180;2023-07-08T15:18:52;3.20;;;3.10;;
47912;SDS011;33676;51.006;17.180;2023-07-08T15:21:21;2.80;;;2.70;;
47912;SDS011;33676;51.006;17.180;2023-07-08T15:23:50;2.30;;;2.20;;
47912;SDS011;33676;51.006;17.180;2023-07-08T15:26:19;2.90;;;2.60;;
47912;SDS011;33676;51.006;17.180;2023-07-08T15:28:49;2.90;;;2.70;;
47912;SDS011;33676;51.006;17.180;2023-07-08T15:31:21;3.10;;;2.40;;
47912;SDS011;33676;51.006;17.180;2023-07-08T15:33:53;3.20;;;2.60;;
47912;SDS011;33676;51.006;17.180;2023-07-08T15:36:22;3.00;;;2.80;;
47912;SDS011;33676;51.006;17.180;2023-07-08T15:38:51;2.70;;;2.50;;
47912;SDS011;33676;51.006;17.180;2023-07-08T15:41:25;3.40;;;3.20;;
47912;SDS011;33676;51.006;17.180;2023-07-08T15:43:56;2.50;;;2.50;;
47912;SDS011;33676;51.006;17.180;2023-07-08T15:46:33;2.80;;;2.80;;
47912;SDS011;33676;51.006;17.180;2023-07-08T15:49:15;3.40;;;3.30;;
47912;SDS011;33676;51.006;17.180;2023-07-08T15:51:46;3.10;;;2.90;;
47912;SDS011;33676;51.006;17.180;2023-07-08T15:56:49;3.90;;;3.70;;
47912;SDS011;33676;51.006;17.180;2023-07-08T15:59:25;3.10;;;3.00;;
47912;SDS011;33676;51.006;17.180;2023-07-08T16:02:02;2.80;;;2.80;;
47912;SDS011;33676;51.006;17.180;2023-07-08T16:04:41;3.30;;;3.10;;
47912;SDS011;33676;51.006;17.180;2023-07-08T16:07:10;2.60;;;2.60;;
47912;SDS011;33676;51.006;17.180;2023-07-08T16:09:39;3.20;;;3.00;;